createdAt,value
2018-09-29T00:00:18.265Z,55.80
2018-09-29T00:02:47.338Z,55.60
2018-09-29T00:05:16.053Z,55.60
2018-09-29T00:07:44.482Z,55.70
2018-09-29T00:10:13.223Z,55.80
2018-09-29T00:12:42.114Z,55.90
2018-09-29T00:15:11.377Z,56.00
2018-09-29T00:17:39.756Z,56.00
2018-09-29T00:20:08.448Z,56.10
2018-09-29T00:22:36.951Z,56.20
2018-09-29T00:25:05.488Z,56.20
2018-09-29T00:27:33.996Z,56.20
2018-09-29T00:32:37.945Z,56.50
2018-09-29T00:35:06.258Z,56.60
2018-09-29T00:40:14.168Z,56.60
2018-09-29T00:42:42.509Z,56.40
2018-09-29T00:45:11.066Z,56.60
2018-09-29T00:47:39.550Z,56.70
2018-09-29T00:50:08.203Z,56.80
2018-09-29T00:52:36.558Z,56.70
2018-09-29T00:55:05.007Z,56.60
2018-09-29T00:57:33.555Z,56.70
2018-09-29T01:00:01.906Z,56.90
2018-09-29T01:02:30.493Z,56.60
2018-09-29T01:04:58.936Z,56.70
2018-09-29T01:07:27.334Z,57.00
2018-09-29T01:09:56.057Z,56.90
2018-09-29T01:12:24.657Z,57.00
2018-09-29T01:14:53.070Z,56.90
2018-09-29T01:17:21.676Z,57.00
2018-09-29T01:19:50.547Z,56.90
2018-09-29T01:22:19.271Z,57.10
2018-09-29T01:24:47.853Z,57.20
2018-09-29T01:27:16.314Z,57.10
2018-09-29T01:29:44.881Z,57.60
2018-09-29T01:32:13.308Z,57.00
2018-09-29T01:34:41.616Z,57.20
2018-09-29T01:37:10.080Z,57.00
2018-09-29T01:39:38.470Z,57.00
2018-09-29T01:42:07.563Z,57.20
2018-09-29T01:44:36.266Z,57.40
2018-09-29T01:47:04.848Z,57.40
2018-09-29T01:49:33.980Z,57.30
2018-09-29T01:52:02.333Z,57.30
2018-09-29T01:54:30.761Z,57.40
2018-09-29T01:56:59.126Z,57.50
2018-09-29T01:59:28.153Z,57.90
2018-09-29T02:01:56.645Z,57.80
2018-09-29T02:04:25.351Z,58.30
2018-09-29T02:06:53.971Z,57.80
2018-09-29T02:09:22.516Z,58.20
2018-09-29T02:11:51.545Z,58.00
2018-09-29T02:14:19.982Z,58.00
2018-09-29T02:16:48.675Z,58.10
2018-09-29T02:19:17.734Z,58.00
2018-09-29T02:21:46.338Z,58.00
2018-09-29T02:24:14.941Z,58.20
2018-09-29T02:26:43.504Z,58.10
2018-09-29T02:29:11.984Z,58.30
2018-09-29T02:31:40.483Z,58.10
2018-09-29T02:34:09.039Z,58.00
2018-09-29T02:36:37.587Z,58.00
2018-09-29T02:39:09.937Z,57.90
2018-09-29T02:41:38.362Z,58.10
2018-09-29T02:44:06.900Z,58.10
2018-09-29T02:46:35.596Z,58.10
2018-09-29T02:49:04.767Z,58.40
2018-09-29T02:51:34.006Z,58.50
2018-09-29T02:54:02.676Z,58.40
2018-09-29T02:56:31.443Z,58.50
2018-09-29T02:59:04.078Z,58.50
2018-09-29T03:01:32.677Z,58.60
2018-09-29T03:04:01.361Z,58.50
2018-09-29T03:06:30.046Z,58.70
2018-09-29T03:08:58.382Z,58.90
2018-09-29T03:11:27.955Z,59.30
2018-09-29T03:13:56.377Z,59.30
2018-09-29T03:16:26.101Z,59.00
2018-09-29T03:18:55.210Z,58.90
2018-09-29T03:21:24.401Z,58.80
2018-09-29T03:23:52.944Z,59.10
2018-09-29T03:26:21.515Z,59.10
2018-09-29T03:28:49.957Z,59.20
2018-09-29T03:31:18.449Z,59.10
2018-09-29T03:33:47.207Z,59.20
2018-09-29T03:36:15.799Z,59.10
2018-09-29T03:38:44.272Z,59.30
2018-09-29T03:41:12.597Z,59.60
2018-09-29T03:43:41.232Z,59.40
2018-09-29T03:46:10.124Z,59.40
2018-09-29T03:48:39.221Z,59.20
2018-09-29T03:51:07.785Z,59.70
2018-09-29T03:53:36.426Z,59.50
2018-09-29T03:56:04.974Z,59.50
2018-09-29T03:58:33.410Z,59.50
2018-09-29T04:01:02.137Z,59.50
2018-09-29T04:03:30.743Z,59.90
2018-09-29T04:05:59.320Z,59.80
2018-09-29T04:08:27.764Z,59.80
2018-09-29T04:10:56.573Z,60.10
2018-09-29T04:13:25.328Z,59.90
2018-09-29T04:15:54.603Z,60.00
2018-09-29T04:18:23.280Z,59.90
2018-09-29T04:20:51.965Z,60.30
2018-09-29T04:23:20.849Z,60.40
2018-09-29T04:25:49.176Z,60.30
2018-09-29T04:28:17.782Z,60.20
2018-09-29T04:30:46.527Z,60.20
2018-09-29T04:33:15.209Z,60.90
2018-09-29T04:35:43.631Z,60.60
2018-09-29T04:38:11.973Z,60.40
2018-09-29T04:40:40.810Z,60.50
2018-09-29T04:43:09.404Z,60.40
2018-09-29T04:45:38.614Z,60.50
2018-09-29T04:48:07.790Z,60.40
2018-09-29T04:50:36.226Z,60.40
2018-09-29T04:53:04.692Z,60.70
2018-09-29T04:55:33.205Z,60.70
2018-09-29T04:58:01.594Z,61.10
2018-09-29T05:00:30.134Z,61.10
2018-09-29T05:02:59.196Z,61.10
2018-09-29T05:05:27.631Z,61.00
2018-09-29T05:07:56.261Z,61.10
2018-09-29T05:10:24.736Z,61.10
2018-09-29T05:12:53.230Z,61.60
2018-09-29T05:15:23.119Z,61.10
2018-09-29T05:17:51.457Z,61.10
2018-09-29T05:20:19.928Z,61.20
2018-09-29T05:22:48.369Z,61.20
2018-09-29T05:25:16.768Z,61.20
2018-09-29T05:27:45.213Z,61.20
2018-09-29T05:30:13.630Z,61.20
2018-09-29T05:32:42.141Z,61.20
2018-09-29T05:35:10.667Z,61.20
2018-09-29T05:37:41.725Z,61.20
2018-09-29T05:40:10.129Z,61.20
2018-09-29T05:42:38.635Z,61.30
2018-09-29T05:45:07.153Z,61.10
2018-09-29T05:47:35.600Z,61.10
2018-09-29T05:50:04.314Z,61.30
2018-09-29T05:52:33.338Z,61.20
2018-09-29T05:55:01.907Z,61.10
2018-09-29T05:57:30.357Z,61.40
2018-09-29T05:59:59.185Z,61.10
2018-09-29T06:02:27.869Z,61.30
2018-09-29T06:04:56.837Z,61.20
2018-09-29T06:07:25.580Z,61.40
2018-09-29T06:09:54.102Z,61.60
2018-09-29T06:12:22.557Z,61.70
2018-09-29T06:14:52.671Z,61.70
2018-09-29T06:17:23.775Z,61.70
2018-09-29T06:19:52.442Z,61.60
2018-09-29T06:22:21.046Z,61.60
2018-09-29T06:24:49.514Z,61.90
2018-09-29T06:27:17.857Z,61.80
2018-09-29T06:29:46.704Z,61.70
2018-09-29T06:32:15.146Z,61.90
2018-09-29T06:34:43.483Z,62.30
2018-09-29T06:37:12.022Z,62.50
2018-09-29T06:39:40.476Z,63.40
2018-09-29T06:42:08.953Z,62.50
2018-09-29T06:44:37.826Z,63.60
2018-09-29T06:47:07.453Z,62.70
2018-09-29T06:49:35.896Z,62.90
2018-09-29T06:52:04.384Z,62.70
2018-09-29T06:54:32.752Z,63.00
2018-09-29T06:57:01.091Z,62.70
2018-09-29T06:59:29.400Z,62.90
2018-09-29T07:01:57.843Z,62.80
2018-09-29T07:04:26.297Z,63.00
2018-09-29T07:06:54.788Z,63.10
2018-09-29T07:09:23.212Z,62.80
2018-09-29T07:11:51.563Z,62.90
2018-09-29T07:14:19.883Z,62.70
2018-09-29T07:16:48.322Z,62.70
2018-09-29T07:19:16.754Z,62.30
2018-09-29T07:21:45.786Z,62.30
2018-09-29T07:24:14.082Z,62.00
2018-09-29T07:26:42.503Z,62.10
2018-09-29T07:29:11.052Z,62.00
2018-09-29T07:31:39.379Z,62.20
2018-09-29T07:34:07.880Z,62.30
2018-09-29T07:36:36.277Z,61.60
2018-09-29T07:39:07.369Z,61.80
2018-09-29T07:41:36.345Z,61.90
2018-09-29T07:44:05.020Z,61.90
2018-09-29T07:47:01.164Z,61.70
2018-09-29T07:49:45.852Z,61.50
2018-09-29T07:52:14.228Z,61.50
2018-09-29T07:54:42.642Z,61.30
2018-09-29T07:57:11.036Z,61.60
2018-09-29T07:59:39.528Z,60.70
2018-09-29T08:02:08.075Z,61.00
2018-09-29T08:04:36.580Z,60.60
2018-09-29T08:07:05.022Z,60.10
2018-09-29T08:09:33.562Z,60.70
2018-09-29T08:12:01.958Z,60.20
2018-09-29T08:14:59.144Z,60.30
2018-09-29T08:17:28.026Z,60.20
2018-09-29T08:19:56.365Z,60.50
2018-09-29T08:22:26.523Z,59.20
2018-09-29T08:24:57.685Z,60.00
2018-09-29T08:27:26.066Z,59.80
2018-09-29T08:29:54.425Z,59.90
2018-09-29T08:32:23.016Z,59.50
2018-09-29T08:34:51.464Z,59.30
2018-09-29T08:37:19.926Z,59.10
2018-09-29T08:39:48.238Z,59.20
2018-09-29T08:42:16.750Z,58.80
2018-09-29T08:44:45.171Z,59.40
2018-09-29T08:47:13.837Z,58.60
2018-09-29T08:49:42.140Z,58.90
2018-09-29T08:52:10.574Z,59.00
2018-09-29T08:54:39.047Z,58.90
2018-09-29T08:57:07.388Z,59.10
2018-09-29T08:59:35.686Z,58.80
2018-09-29T09:02:04.047Z,59.00
2018-09-29T09:04:32.449Z,59.00
2018-09-29T09:07:00.774Z,59.40
2018-09-29T09:09:29.102Z,59.30
2018-09-29T09:11:57.508Z,58.60
2018-09-29T09:14:25.819Z,59.20
2018-09-29T09:16:54.899Z,59.50
2018-09-29T09:19:23.177Z,59.50
2018-09-29T09:21:51.629Z,59.20
2018-09-29T09:24:20.168Z,58.70
2018-09-29T09:26:49.500Z,57.80
2018-09-29T09:29:17.856Z,58.30
2018-09-29T09:31:46.225Z,57.40
2018-09-29T09:34:14.571Z,57.90
2018-09-29T09:36:42.883Z,57.80
2018-09-29T09:39:12.111Z,57.80
2018-09-29T09:41:40.494Z,57.00
2018-09-29T09:44:09.464Z,57.60
2018-09-29T09:46:37.822Z,56.80
2018-09-29T09:49:06.509Z,57.70
2018-09-29T09:51:35.427Z,57.20
2018-09-29T09:54:03.726Z,57.60
2018-09-29T09:56:32.041Z,57.10
2018-09-29T09:59:00.419Z,57.00
2018-09-29T10:01:39.809Z,57.40
2018-09-29T10:04:08.324Z,55.60
2018-09-29T10:06:36.894Z,55.90
2018-09-29T10:09:08.326Z,55.70
2018-09-29T10:11:36.780Z,56.10
2018-09-29T10:14:05.149Z,56.30
2018-09-29T10:16:33.867Z,56.30
2018-09-29T10:19:02.188Z,55.00
2018-09-29T10:21:30.497Z,55.40
2018-09-29T10:23:58.841Z,55.20
2018-09-29T10:26:27.175Z,55.70
2018-09-29T10:28:55.677Z,56.20
2018-09-29T10:31:23.956Z,56.20
2018-09-29T10:33:52.369Z,54.10
2018-09-29T10:36:20.813Z,55.70
2018-09-29T10:38:49.050Z,56.30
2018-09-29T10:41:17.468Z,54.50
2018-09-29T10:43:45.767Z,55.00
2018-09-29T10:46:14.065Z,55.30
2018-09-29T10:48:42.429Z,54.30
2018-09-29T10:51:10.750Z,53.70
2018-09-29T10:53:39.105Z,53.50
2018-09-29T10:56:07.540Z,54.90
2018-09-29T10:58:36.640Z,53.50
2018-09-29T11:01:04.983Z,53.60
2018-09-29T11:03:33.386Z,53.10
2018-09-29T11:06:01.745Z,52.90
2018-09-29T11:08:30.094Z,54.20
2018-09-29T11:10:58.591Z,52.40
2018-09-29T11:13:26.876Z,53.90
2018-09-29T11:15:55.377Z,53.00
2018-09-29T11:18:23.768Z,54.00
2018-09-29T11:20:52.275Z,53.60
2018-09-29T11:23:20.641Z,52.40
2018-09-29T11:25:49.065Z,52.80
2018-09-29T11:28:17.508Z,52.40
2018-09-29T11:30:45.994Z,53.30
2018-09-29T11:33:14.289Z,54.10
2018-09-29T11:35:42.624Z,52.30
2018-09-29T11:38:11.132Z,54.10
2018-09-29T11:40:39.492Z,52.90
2018-09-29T11:43:08.083Z,53.10
2018-09-29T11:45:36.626Z,51.70
2018-09-29T11:48:04.929Z,51.60
2018-09-29T11:50:33.265Z,50.40
2018-09-29T11:53:01.650Z,51.30
2018-09-29T11:55:30.365Z,51.40
2018-09-29T11:57:58.796Z,50.90
2018-09-29T12:00:27.085Z,50.30
2018-09-29T12:02:55.571Z,50.60
2018-09-29T12:05:23.981Z,50.50
2018-09-29T12:07:52.560Z,51.30
2018-09-29T12:10:20.891Z,49.50
2018-09-29T12:12:49.215Z,49.10
2018-09-29T12:15:18.389Z,49.90
2018-09-29T12:17:46.744Z,49.40
2018-09-29T12:20:15.073Z,50.40
2018-09-29T12:22:43.556Z,51.00
2018-09-29T12:25:11.986Z,50.30
2018-09-29T12:27:40.424Z,48.50
2018-09-29T12:30:09.181Z,50.70
2018-09-29T12:32:42.792Z,48.60
2018-09-29T12:35:11.293Z,50.60
2018-09-29T12:37:39.989Z,50.30
2018-09-29T12:40:08.452Z,50.10
2018-09-29T12:42:37.041Z,51.00
2018-09-29T12:45:06.154Z,49.20
2018-09-29T12:47:35.205Z,49.60
2018-09-29T12:50:03.812Z,49.90
2018-09-29T12:52:33.032Z,48.60
2018-09-29T12:55:01.656Z,48.80
2018-09-29T12:57:30.258Z,49.90
2018-09-29T12:59:59.226Z,50.60
2018-09-29T13:02:27.711Z,50.10
2018-09-29T13:04:56.308Z,45.70
2018-09-29T13:07:25.289Z,46.80
2018-09-29T13:09:54.092Z,48.30
2018-09-29T13:12:22.827Z,49.10
2018-09-29T13:14:51.596Z,49.60
2018-09-29T13:17:20.268Z,48.40
2018-09-29T13:19:49.033Z,46.50
2018-09-29T13:22:18.001Z,48.10
2018-09-29T13:24:46.805Z,48.40
2018-09-29T13:27:15.896Z,49.30
2018-09-29T13:29:44.540Z,49.30
2018-09-29T13:32:13.087Z,48.60
2018-09-29T13:34:41.572Z,48.90
2018-09-29T13:37:11.247Z,48.80
2018-09-29T13:39:40.789Z,48.90
2018-09-29T13:42:09.363Z,49.40
2018-09-29T13:44:37.810Z,49.50
2018-09-29T13:47:06.522Z,48.40
2018-09-29T13:49:34.966Z,49.10
2018-09-29T13:52:03.612Z,48.20
2018-09-29T13:54:32.023Z,48.70
2018-09-29T13:57:00.584Z,48.20
2018-09-29T13:59:29.232Z,49.30
2018-09-29T14:01:58.241Z,47.60
2018-09-29T14:04:27.264Z,49.30
2018-09-29T14:06:56.280Z,47.50
2018-09-29T14:09:24.694Z,46.70
2018-09-29T14:11:53.641Z,48.90
2018-09-29T14:14:22.080Z,47.90
2018-09-29T14:16:50.516Z,48.80
2018-09-29T14:19:18.906Z,49.40
2018-09-29T14:21:47.356Z,48.70
2018-09-29T14:24:15.687Z,48.10
2018-09-29T14:26:44.080Z,49.10
2018-09-29T14:29:12.652Z,49.20
2018-09-29T14:31:41.433Z,48.10
2018-09-29T14:34:10.046Z,47.90
2018-09-29T14:36:39.129Z,47.30
2018-09-29T14:39:08.870Z,46.30
2018-09-29T14:41:38.993Z,47.60
2018-09-29T14:44:07.959Z,47.90
2018-09-29T14:46:37.063Z,48.50
2018-09-29T14:49:05.589Z,47.40
2018-09-29T14:51:33.974Z,47.50
2018-09-29T14:54:02.644Z,48.80
2018-09-29T14:56:30.999Z,49.10
2018-09-29T14:58:59.494Z,47.00
2018-09-29T15:01:27.917Z,47.50
2018-09-29T15:03:56.646Z,47.10
2018-09-29T15:06:25.270Z,46.70
2018-09-29T15:08:53.880Z,47.60
2018-09-29T15:11:22.298Z,48.50
2018-09-29T15:13:50.710Z,48.90
2018-09-29T15:16:19.662Z,47.50
2018-09-29T15:18:48.063Z,46.80
2018-09-29T15:21:17.136Z,48.10
2018-09-29T15:23:45.473Z,48.20
2018-09-29T15:26:14.012Z,48.60
2018-09-29T15:28:42.696Z,48.40
2018-09-29T15:31:11.109Z,48.50
2018-09-29T15:33:40.364Z,48.80
2018-09-29T15:36:08.731Z,48.40
2018-09-29T15:38:37.125Z,48.70
2018-09-29T15:41:05.532Z,47.50
2018-09-29T15:43:33.909Z,48.00
2018-09-29T15:46:02.323Z,48.40
2018-09-29T15:48:30.908Z,48.30
2018-09-29T15:50:59.470Z,47.40
2018-09-29T15:53:28.009Z,47.30
2018-09-29T15:55:56.362Z,47.60
2018-09-29T15:58:24.793Z,48.20
2018-09-29T16:00:53.091Z,47.90
2018-09-29T16:03:21.448Z,48.60
2018-09-29T16:05:49.910Z,48.20
2018-09-29T16:08:18.266Z,48.70
2018-09-29T16:10:47.182Z,48.30
2018-09-29T16:13:15.510Z,48.30
2018-09-29T16:15:43.863Z,48.00
2018-09-29T16:18:13.154Z,48.30
2018-09-29T16:20:41.644Z,48.70
2018-09-29T16:23:10.091Z,48.90
2018-09-29T16:25:38.634Z,49.10
2018-09-29T16:28:06.956Z,49.10
2018-09-29T16:30:35.313Z,49.20
2018-09-29T16:33:04.652Z,49.10
2018-09-29T16:35:33.229Z,49.10
2018-09-29T16:38:01.877Z,49.20
2018-09-29T16:40:30.226Z,49.20
2018-09-29T16:42:58.621Z,49.40
2018-09-29T16:45:27.218Z,49.40
2018-09-29T16:47:55.613Z,49.30
2018-09-29T16:50:24.139Z,49.50
2018-09-29T16:52:52.887Z,49.70
2018-09-29T16:55:21.214Z,49.80
2018-09-29T16:57:49.513Z,49.70
2018-09-29T17:00:17.936Z,49.60
2018-09-29T17:02:46.241Z,49.70
2018-09-29T17:05:14.561Z,49.80
2018-09-29T17:07:43.038Z,49.90
2018-09-29T17:10:11.557Z,49.80
2018-09-29T17:12:39.945Z,49.80
2018-09-29T17:15:08.422Z,49.80
2018-09-29T17:17:37.065Z,49.90
2018-09-29T17:20:05.509Z,49.90
2018-09-29T17:22:33.864Z,49.80
2018-09-29T17:25:02.251Z,49.70
2018-09-29T17:27:30.894Z,50.00
2018-09-29T17:29:59.184Z,49.90
2018-09-29T17:32:27.631Z,49.90
2018-09-29T17:34:56.065Z,49.90
2018-09-29T17:37:24.426Z,49.90
2018-09-29T17:39:52.835Z,50.00
2018-09-29T17:42:21.196Z,50.00
2018-09-29T17:44:49.663Z,50.10
2018-09-29T17:47:18.055Z,50.00
2018-09-29T17:49:46.411Z,50.10
2018-09-29T17:52:14.780Z,50.00
2018-09-29T17:54:43.074Z,50.20
2018-09-29T17:57:11.709Z,50.20
2018-09-29T17:59:40.387Z,50.10
2018-09-29T18:02:08.785Z,50.10
2018-09-29T18:04:37.360Z,50.10
2018-09-29T18:07:06.254Z,50.10
2018-09-29T18:09:34.630Z,50.10
2018-09-29T18:12:03.113Z,50.30
2018-09-29T18:14:31.673Z,50.30
2018-09-29T18:17:00.161Z,50.40
2018-09-29T18:19:29.142Z,50.50
2018-09-29T18:21:58.474Z,50.50
2018-09-29T18:24:26.963Z,50.60
2018-09-29T18:26:55.673Z,50.60
2018-09-29T18:29:24.584Z,50.70
2018-09-29T18:31:53.065Z,50.70
2018-09-29T18:34:21.857Z,50.90
2018-09-29T18:36:50.392Z,50.90
2018-09-29T18:39:18.898Z,51.10
2018-09-29T18:41:47.467Z,51.10
2018-09-29T18:44:15.801Z,51.00
2018-09-29T18:46:44.429Z,51.00
2018-09-29T18:49:12.901Z,51.10
2018-09-29T18:51:41.407Z,51.30
2018-09-29T18:54:10.110Z,51.30
2018-09-29T18:56:38.519Z,51.30
2018-09-29T18:59:07.064Z,51.30
2018-09-29T19:01:35.525Z,51.50
2018-09-29T19:04:04.148Z,51.50
2018-09-29T19:06:32.508Z,51.60
2018-09-29T19:09:00.890Z,51.50
2018-09-29T19:11:29.438Z,51.60
2018-09-29T19:13:57.767Z,51.80
2018-09-29T19:16:26.205Z,51.80
2018-09-29T19:18:55.209Z,51.80
2018-09-29T19:21:23.579Z,52.20
2018-09-29T19:23:51.914Z,52.10
2018-09-29T19:26:20.690Z,52.20
2018-09-29T19:28:49.037Z,52.10
2018-09-29T19:31:17.433Z,52.30
2018-09-29T19:33:45.929Z,52.30
2018-09-29T19:36:14.315Z,52.50
2018-09-29T19:38:42.726Z,52.70
2018-09-29T19:41:11.360Z,52.70
2018-09-29T19:43:39.851Z,52.90
2018-09-29T19:46:08.367Z,52.70
2018-09-29T19:48:36.952Z,52.90
2018-09-29T19:51:05.468Z,53.00
2018-09-29T19:53:33.899Z,53.00
2018-09-29T19:56:02.210Z,53.10
2018-09-29T19:58:30.610Z,53.10
2018-09-29T20:00:58.961Z,53.20
2018-09-29T20:03:27.299Z,53.20
2018-09-29T20:05:55.786Z,53.50
2018-09-29T20:08:24.676Z,53.20
2018-09-29T20:10:53.133Z,53.40
2018-09-29T20:13:21.570Z,53.40
2018-09-29T20:15:49.899Z,53.40
2018-09-29T20:18:18.291Z,53.60
2018-09-29T20:20:46.787Z,53.60
2018-09-29T20:23:15.306Z,53.60
2018-09-29T20:25:44.010Z,53.80
2018-09-29T20:28:12.542Z,53.90
2018-09-29T20:30:40.998Z,54.20
2018-09-29T20:33:09.456Z,53.90
2018-09-29T20:35:37.974Z,54.00
2018-09-29T20:38:06.510Z,54.00
2018-09-29T20:40:35.089Z,54.20
2018-09-29T20:43:03.601Z,54.00
2018-09-29T20:45:32.133Z,54.30
2018-09-29T20:48:00.552Z,54.20
2018-09-29T20:50:28.922Z,54.50
2018-09-29T20:52:57.407Z,54.30
2018-09-29T20:55:25.865Z,54.40
2018-09-29T20:57:54.358Z,54.30
2018-09-29T21:00:22.713Z,54.40
2018-09-29T21:02:51.214Z,54.60
2018-09-29T21:05:19.876Z,54.60
2018-09-29T21:07:48.357Z,54.70
2018-09-29T21:10:17.028Z,55.00
2018-09-29T21:12:45.596Z,55.10
2018-09-29T21:15:13.957Z,55.20
2018-09-29T21:17:42.421Z,54.90
2018-09-29T21:20:10.943Z,55.10
2018-09-29T21:22:39.625Z,54.90
2018-09-29T21:25:08.034Z,54.70
2018-09-29T21:27:36.476Z,54.70
2018-09-29T21:30:04.895Z,55.00
2018-09-29T21:32:33.249Z,55.20
2018-09-29T21:35:01.742Z,55.10
2018-09-29T21:37:30.218Z,55.40
2018-09-29T21:39:58.560Z,55.70
2018-09-29T21:42:26.943Z,55.30
2018-09-29T21:44:55.526Z,55.20
2018-09-29T21:47:24.000Z,55.40
2018-09-29T21:49:52.346Z,55.50
2018-09-29T21:52:20.789Z,55.20
2018-09-29T21:54:49.454Z,55.40
2018-09-29T21:57:17.880Z,55.30
2018-09-29T21:59:46.396Z,55.40
2018-09-29T22:02:33.778Z,55.70
2018-09-29T22:05:05.804Z,55.50
2018-09-29T22:07:34.744Z,55.50
2018-09-29T22:10:03.173Z,55.50
2018-09-29T22:12:31.861Z,55.60
2018-09-29T22:15:00.268Z,55.70
2018-09-29T22:17:28.859Z,55.70
2018-09-29T22:19:57.452Z,55.90
2018-09-29T22:22:26.049Z,55.70
2018-09-29T22:24:54.360Z,55.80
2018-09-29T22:27:22.822Z,55.90
2018-09-29T22:29:51.272Z,55.90
2018-09-29T22:32:19.649Z,55.80
2018-09-29T22:34:48.007Z,55.90
2018-09-29T22:37:16.559Z,56.00
2018-09-29T22:39:51.551Z,56.00
2018-09-29T22:42:19.906Z,56.10
2018-09-29T22:44:48.548Z,56.10
2018-09-29T22:47:17.034Z,55.80
2018-09-29T22:49:45.475Z,56.00
2018-09-29T22:52:13.892Z,56.30
2018-09-29T22:54:42.457Z,56.00
2018-09-29T22:57:11.023Z,56.20
2018-09-29T22:59:39.560Z,56.40
2018-09-29T23:02:08.165Z,56.50
2018-09-29T23:04:37.470Z,56.40
2018-09-29T23:07:05.956Z,56.50
2018-09-29T23:09:34.326Z,56.40
2018-09-29T23:12:02.670Z,56.50
2018-09-29T23:14:31.119Z,56.50
2018-09-29T23:16:59.716Z,56.40
2018-09-29T23:19:28.069Z,56.80
2018-09-29T23:21:56.775Z,56.30
2018-09-29T23:24:25.237Z,56.50
2018-09-29T23:26:53.839Z,56.60
2018-09-29T23:29:22.436Z,56.90
2018-09-29T23:31:50.810Z,56.70
2018-09-29T23:34:19.173Z,56.80
2018-09-29T23:36:47.477Z,56.60
2018-09-29T23:39:15.914Z,56.70
2018-09-29T23:41:44.488Z,56.70
2018-09-29T23:44:13.394Z,56.70
2018-09-29T23:46:41.733Z,56.50
2018-09-29T23:49:10.140Z,56.50
2018-09-29T23:51:38.890Z,56.60
2018-09-29T23:54:07.390Z,56.90
2018-09-29T23:56:35.764Z,56.60
2018-09-29T23:59:04.349Z,56.50
